sensor_id;sensor_type;location;lat;lon;timestamp;pressure;altitude;pressure_sealevel;temperature;humidity
77120;BME280;66073;47.730;9.352;2023-12-20T00:00:57;97032.75;;;4.64;100.00
77120;BME280;66073;47.730;9.352;2023-12-20T00:03:23;97040.97;;;4.74;100.00
77120;BME280;66073;47.730;9.352;2023-12-20T00:05:49;97032.50;;;4.54;100.00
77120;BME280;66073;47.730;9.352;2023-12-20T00:08:15;97031.53;;;5.02;100.00
77120;BME280;66073;47.730;9.352;2023-12-20T00:10:40;97040.50;;;5.00;100.00
77120;BME280;66073;47.730;9.352;2023-12-20T00:13:07;97023.25;;;4.86;100.00
77120;BME280;66073;47.730;9.352;2023-12-20T00:15:33;97010.13;;;5.15;100.00
77120;BME280;66073;47.730;9.352;2023-12-20T00:17:59;97011.63;;;5.22;100.00
77120;BME280;66073;47.730;9.352;2023-12-20T00:20:28;97011.41;;;5.12;100.00
77120;BME280;66073;47.730;9.352;2023-12-20T00:22:56;96997.38;;;5.00;100.00
77120;BME280;66073;47.730;9.352;2023-12-20T00:25:25;96986.09;;;5.05;100.00
77120;BME280;66073;47.730;9.352;2023-12-20T00:27:51;96987.03;;;4.75;100.00
77120;BME280;66073;47.730;9.352;2023-12-20T00:30:17;96975.19;;;4.66;100.00
77120;BME280;66073;47.730;9.352;2023-12-20T00:32:42;96982.78;;;4.74;100.00
77120;BME280;66073;47.730;9.352;2023-12-20T00:35:14;96982.44;;;4.94;100.00
77120;BME280;66073;47.730;9.352;2023-12-20T00:37:39;96987.72;;;4.94;100.00
77120;BME280;66073;47.730;9.352;2023-12-20T00:40:05;96983.22;;;4.71;100.00
77120;BME280;66073;47.730;9.352;2023-12-20T00:42:31;96979.44;;;4.90;100.00
77120;BME280;66073;47.730;9.352;2023-12-20T00:44:58;96973.91;;;5.15;100.00
77120;BME280;66073;47.730;9.352;2023-12-20T00:47:23;96974.84;;;5.09;100.00
77120;BME280;66073;47.730;9.352;2023-12-20T00:49:49;96972.66;;;4.94;100.00
77120;BME280;66073;47.730;9.352;2023-12-20T00:52:14;96967.63;;;4.81;100.00
77120;BME280;66073;47.730;9.352;2023-12-20T00:54:40;96970.22;;;4.46;100.00
77120;BME280;66073;47.730;9.352;2023-12-20T00:57:05;96969.09;;;4.66;100.00
77120;BME280;66073;47.730;9.352;2023-12-20T00:59:30;96972.91;;;4.81;100.00
77120;BME280;66073;47.730;9.352;2023-12-20T01:01:56;96961.19;;;4.77;100.00
77120;BME280;66073;47.730;9.352;2023-12-20T01:04:21;96944.84;;;4.80;100.00
77120;BME280;66073;47.730;9.352;2023-12-20T01:06:47;96935.66;;;4.60;100.00
77120;BME280;66073;47.730;9.352;2023-12-20T01:09:12;96936.09;;;4.68;100.00
77120;BME280;66073;47.730;9.352;2023-12-20T01:11:38;96943.22;;;4.68;100.00
77120;BME280;66073;47.730;9.352;2023-12-20T01:14:03;96944.03;;;4.68;100.00
77120;BME280;66073;47.730;9.352;2023-12-20T01:16:28;96940.59;;;4.79;100.00
77120;BME280;66073;47.730;9.352;2023-12-20T01:18:54;96949.88;;;4.93;100.00
77120;BME280;66073;47.730;9.352;2023-12-20T01:21:19;96953.56;;;4.92;100.00
77120;BME280;66073;47.730;9.352;2023-12-20T01:23:45;96948.38;;;4.97;100.00
77120;BME280;66073;47.730;9.352;2023-12-20T01:26:10;96943.56;;;4.48;100.00
77120;BME280;66073;47.730;9.352;2023-12-20T01:28:37;96941.84;;;4.42;100.00
77120;BME280;66073;47.730;9.352;2023-12-20T01:31:03;96932.75;;;4.61;100.00
77120;BME280;66073;47.730;9.352;2023-12-20T01:33:29;96932.03;;;5.00;100.00
77120;BME280;66073;47.730;9.352;2023-12-20T01:35:54;96938.41;;;5.39;100.00
77120;BME280;66073;47.730;9.352;2023-12-20T01:38:20;96939.38;;;5.22;100.00
77120;BME280;66073;47.730;9.352;2023-12-20T01:40:45;96943.56;;;5.06;100.00
77120;BME280;66073;47.730;9.352;2023-12-20T01:43:11;96936.25;;;5.25;100.00
77120;BME280;66073;47.730;9.352;2023-12-20T01:45:39;96943.47;;;5.41;100.00
77120;BME280;66073;47.730;9.352;2023-12-20T01:48:05;96945.97;;;5.47;100.00
77120;BME280;66073;47.730;9.352;2023-12-20T01:50:35;96945.03;;;5.54;100.00
77120;BME280;66073;47.730;9.352;2023-12-20T01:53:02;96954.56;;;5.26;100.00
77120;BME280;66073;47.730;9.352;2023-12-20T01:55:31;96960.59;;;4.98;100.00
77120;BME280;66073;47.730;9.352;2023-12-20T01:57:58;96951.50;;;5.06;100.00
77120;BME280;66073;47.730;9.352;2023-12-20T02:00:26;96941.84;;;4.88;100.00
77120;BME280;66073;47.730;9.352;2023-12-20T02:02:54;96942.28;;;5.09;100.00
77120;BME280;66073;47.730;9.352;2023-12-20T02:05:23;96934.81;;;5.06;100.00
77120;BME280;66073;47.730;9.352;2023-12-20T02:07:50;96936.53;;;5.12;100.00
77120;BME280;66073;47.730;9.352;2023-12-20T02:10:16;96937.38;;;5.40;100.00
77120;BME280;66073;47.730;9.352;2023-12-20T02:12:41;96940.69;;;5.47;100.00
77120;BME280;66073;47.730;9.352;2023-12-20T02:15:07;96946.13;;;5.41;100.00
77120;BME280;66073;47.730;9.352;2023-12-20T02:17:33;96938.81;;;5.20;100.00
77120;BME280;66073;47.730;9.352;2023-12-20T02:19:59;96932.41;;;4.92;100.00
77120;BME280;66073;47.730;9.352;2023-12-20T02:22:24;96929.50;;;5.17;100.00
77120;BME280;66073;47.730;9.352;2023-12-20T02:24:50;96925.72;;;5.13;100.00
77120;BME280;66073;47.730;9.352;2023-12-20T02:27:18;96920.78;;;5.05;100.00
77120;BME280;66073;47.730;9.352;2023-12-20T02:29:48;96923.50;;;5.22;100.00
77120;BME280;66073;47.730;9.352;2023-12-20T02:32:18;96917.34;;;4.93;100.00
77120;BME280;66073;47.730;9.352;2023-12-20T02:34:45;96920.91;;;4.98;100.00
77120;BME280;66073;47.730;9.352;2023-12-20T02:37:11;96911.00;;;5.06;100.00
77120;BME280;66073;47.730;9.352;2023-12-20T02:39:36;96908.69;;;5.09;100.00
77120;BME280;66073;47.730;9.352;2023-12-20T02:42:02;96917.16;;;5.23;100.00
77120;BME280;66073;47.730;9.352;2023-12-20T02:44:27;96917.66;;;5.08;100.00
77120;BME280;66073;47.730;9.352;2023-12-20T02:46:53;96918.94;;;5.06;100.00
77120;BME280;66073;47.730;9.352;2023-12-20T02:49:18;96904.03;;;4.88;100.00
77120;BME280;66073;47.730;9.352;2023-12-20T02:51:43;96906.75;;;5.05;100.00
77120;BME280;66073;47.730;9.352;2023-12-20T02:54:09;96912.91;;;5.22;100.00
77120;BME280;66073;47.730;9.352;2023-12-20T02:56:34;96909.53;;;4.98;100.00
77120;BME280;66073;47.730;9.352;2023-12-20T02:59:00;96920.44;;;5.02;100.00
77120;BME280;66073;47.730;9.352;2023-12-20T03:01:27;96919.63;;;5.01;100.00
77120;BME280;66073;47.730;9.352;2023-12-20T03:03:53;96909.78;;;4.85;100.00
77120;BME280;66073;47.730;9.352;2023-12-20T03:06:19;96918.50;;;4.85;100.00
77120;BME280;66073;47.730;9.352;2023-12-20T03:08:45;96923.91;;;4.90;100.00
77120;BME280;66073;47.730;9.352;2023-12-20T03:11:10;96920.38;;;5.25;100.00
77120;BME280;66073;47.730;9.352;2023-12-20T03:13:36;96926.91;;;5.34;100.00
77120;BME280;66073;47.730;9.352;2023-12-20T03:16:08;96923.59;;;5.38;100.00
77120;BME280;66073;47.730;9.352;2023-12-20T03:18:34;96923.50;;;5.22;100.00
77120;BME280;66073;47.730;9.352;2023-12-20T03:20:59;96918.94;;;5.17;100.00
77120;BME280;66073;47.730;9.352;2023-12-20T03:23:24;96934.75;;;5.29;100.00
77120;BME280;66073;47.730;9.352;2023-12-20T03:25:51;96937.28;;;5.64;100.00
77120;BME280;66073;47.730;9.352;2023-12-20T03:28:18;96925.13;;;5.51;100.00
77120;BME280;66073;47.730;9.352;2023-12-20T03:30:44;96919.69;;;5.58;100.00
77120;BME280;66073;47.730;9.352;2023-12-20T03:33:09;96916.50;;;5.56;100.00
77120;BME280;66073;47.730;9.352;2023-12-20T03:36:09;96926.69;;;5.64;100.00
77120;BME280;66073;47.730;9.352;2023-12-20T03:38:35;96925.63;;;5.48;100.00
77120;BME280;66073;47.730;9.352;2023-12-20T03:41:00;96930.72;;;5.38;100.00
77120;BME280;66073;47.730;9.352;2023-12-20T03:43:26;96925.66;;;5.25;100.00
77120;BME280;66073;47.730;9.352;2023-12-20T03:45:52;96933.25;;;5.33;100.00
77120;BME280;66073;47.730;9.352;2023-12-20T03:48:24;96937.97;;;5.31;100.00
77120;BME280;66073;47.730;9.352;2023-12-20T03:50:49;96934.88;;;5.34;100.00
77120;BME280;66073;47.730;9.352;2023-12-20T03:53:15;96939.16;;;5.23;100.00
77120;BME280;66073;47.730;9.352;2023-12-20T03:55:40;96942.53;;;4.95;100.00
77120;BME280;66073;47.730;9.352;2023-12-20T03:58:06;96955.19;;;4.59;100.00
77120;BME280;66073;47.730;9.352;2023-12-20T04:00:31;96952.41;;;5.00;100.00
77120;BME280;66073;47.730;9.352;2023-12-20T04:02:56;96955.66;;;4.67;100.00
77120;BME280;66073;47.730;9.352;2023-12-20T04:05:22;96962.66;;;4.73;100.00
77120;BME280;66073;47.730;9.352;2023-12-20T04:07:47;96965.50;;;5.07;100.00
77120;BME280;66073;47.730;9.352;2023-12-20T04:10:13;96959.97;;;5.20;100.00
77120;BME280;66073;47.730;9.352;2023-12-20T04:12:39;96965.66;;;4.77;100.00
77120;BME280;66073;47.730;9.352;2023-12-20T04:15:05;96964.72;;;4.48;100.00
77120;BME280;66073;47.730;9.352;2023-12-20T04:17:34;96971.38;;;4.97;100.00
77120;BME280;66073;47.730;9.352;2023-12-20T04:20:00;96967.78;;;5.15;100.00
77120;BME280;66073;47.730;9.352;2023-12-20T04:22:25;96974.72;;;4.92;100.00
77120;BME280;66073;47.730;9.352;2023-12-20T04:24:51;96980.81;;;4.70;100.00
77120;BME280;66073;47.730;9.352;2023-12-20T04:27:16;96977.03;;;4.77;100.00
77120;BME280;66073;47.730;9.352;2023-12-20T04:29:42;96979.78;;;4.82;100.00
77120;BME280;66073;47.730;9.352;2023-12-20T04:32:07;96991.28;;;4.76;100.00
77120;BME280;66073;47.730;9.352;2023-12-20T04:34:33;96986.91;;;4.70;100.00
77120;BME280;66073;47.730;9.352;2023-12-20T04:36:58;96990.72;;;4.63;100.00
77120;BME280;66073;47.730;9.352;2023-12-20T04:39:24;96997.03;;;4.73;100.00
77120;BME280;66073;47.730;9.352;2023-12-20T04:41:49;96994.06;;;4.81;100.00
77120;BME280;66073;47.730;9.352;2023-12-20T04:44:15;97003.00;;;5.04;100.00
77120;BME280;66073;47.730;9.352;2023-12-20T04:46:41;96995.53;;;5.00;100.00
77120;BME280;66073;47.730;9.352;2023-12-20T04:49:06;97002.78;;;4.93;100.00
77120;BME280;66073;47.730;9.352;2023-12-20T04:51:35;97003.94;;;4.97;100.00
77120;BME280;66073;47.730;9.352;2023-12-20T04:54:02;97010.81;;;4.75;100.00
77120;BME280;66073;47.730;9.352;2023-12-20T04:56:28;97011.75;;;4.92;100.00
77120;BME280;66073;47.730;9.352;2023-12-20T04:58:53;97006.38;;;4.99;100.00
77120;BME280;66073;47.730;9.352;2023-12-20T05:01:19;97011.28;;;5.07;100.00
77120;BME280;66073;47.730;9.352;2023-12-20T05:03:44;97010.97;;;4.92;100.00
77120;BME280;66073;47.730;9.352;2023-12-20T05:06:10;97015.66;;;5.02;100.00
77120;BME280;66073;47.730;9.352;2023-12-20T05:08:36;97028.31;;;4.76;100.00
77120;BME280;66073;47.730;9.352;2023-12-20T05:11:01;97028.31;;;4.99;100.00
77120;BME280;66073;47.730;9.352;2023-12-20T05:13:27;97023.56;;;4.78;100.00
77120;BME280;66073;47.730;9.352;2023-12-20T05:15:53;97020.25;;;4.71;100.00
77120;BME280;66073;47.730;9.352;2023-12-20T05:18:18;97027.59;;;4.69;100.00
77120;BME280;66073;47.730;9.352;2023-12-20T05:20:44;97034.97;;;4.67;100.00
77120;BME280;66073;47.730;9.352;2023-12-20T05:23:09;97037.16;;;4.70;100.00
77120;BME280;66073;47.730;9.352;2023-12-20T05:25:35;97034.31;;;4.95;100.00
77120;BME280;66073;47.730;9.352;2023-12-20T05:28:00;97033.97;;;4.91;100.00
77120;BME280;66073;47.730;9.352;2023-12-20T05:30:26;97035.19;;;4.89;100.00
77120;BME280;66073;47.730;9.352;2023-12-20T05:32:52;97033.81;;;4.63;100.00
77120;BME280;66073;47.730;9.352;2023-12-20T05:35:18;97037.25;;;4.75;100.00
77120;BME280;66073;47.730;9.352;2023-12-20T05:37:44;97036.91;;;4.72;100.00
77120;BME280;66073;47.730;9.352;2023-12-20T05:40:10;97052.09;;;4.99;100.00
77120;BME280;66073;47.730;9.352;2023-12-20T05:42:36;97056.81;;;4.74;100.00
77120;BME280;66073;47.730;9.352;2023-12-20T05:45:03;97054.19;;;4.86;100.00
77120;BME280;66073;47.730;9.352;2023-12-20T05:47:29;97056.00;;;4.85;100.00
77120;BME280;66073;47.730;9.352;2023-12-20T05:49:54;97061.88;;;4.87;100.00
77120;BME280;66073;47.730;9.352;2023-12-20T05:52:20;97067.88;;;4.94;100.00
77120;BME280;66073;47.730;9.352;2023-12-20T05:54:45;97066.94;;;5.00;100.00
77120;BME280;66073;47.730;9.352;2023-12-20T05:57:11;97068.47;;;5.08;100.00
77120;BME280;66073;47.730;9.352;2023-12-20T05:59:36;97054.88;;;4.81;100.00
77120;BME280;66073;47.730;9.352;2023-12-20T06:02:03;97056.81;;;4.74;100.00
77120;BME280;66073;47.730;9.352;2023-12-20T06:04:30;97067.88;;;4.94;100.00
77120;BME280;66073;47.730;9.352;2023-12-20T06:06:55;97067.94;;;4.65;100.00
77120;BME280;66073;47.730;9.352;2023-12-20T06:09:21;97078.41;;;4.71;100.00
77120;BME280;66073;47.730;9.352;2023-12-20T06:11:46;97075.91;;;4.76;100.00
77120;BME280;66073;47.730;9.352;2023-12-20T06:14:12;97075.94;;;5.11;100.00
77120;BME280;66073;47.730;9.352;2023-12-20T06:16:37;97081.47;;;5.10;100.00
77120;BME280;66073;47.730;9.352;2023-12-20T06:19:03;97073.88;;;5.02;100.00
77120;BME280;66073;47.730;9.352;2023-12-20T06:21:29;97072.94;;;5.31;100.00
77120;BME280;66073;47.730;9.352;2023-12-20T06:23:54;97075.47;;;5.03;100.00
77120;BME280;66073;47.730;9.352;2023-12-20T06:26:20;97080.53;;;5.16;100.00
77120;BME280;66073;47.730;9.352;2023-12-20T06:28:45;97086.84;;;4.91;100.00
77120;BME280;66073;47.730;9.352;2023-12-20T06:31:11;97086.28;;;5.13;100.00
77120;BME280;66073;47.730;9.352;2023-12-20T06:33:38;97082.59;;;5.14;100.00
77120;BME280;66073;47.730;9.352;2023-12-20T06:36:06;97083.06;;;5.22;100.00
77120;BME280;66073;47.730;9.352;2023-12-20T06:38:32;97083.88;;;5.23;100.00
77120;BME280;66073;47.730;9.352;2023-12-20T06:40:57;97087.34;;;5.23;100.00
77120;BME280;66073;47.730;9.352;2023-12-20T06:43:24;97092.72;;;4.93;100.00
77120;BME280;66073;47.730;9.352;2023-12-20T06:45:49;97095.72;;;5.32;100.00
77120;BME280;66073;47.730;9.352;2023-12-20T06:48:16;97098.72;;;5.24;100.00
77120;BME280;66073;47.730;9.352;2023-12-20T06:50:41;97093.66;;;5.45;100.00
77120;BME280;66073;47.730;9.352;2023-12-20T06:53:07;97090.44;;;5.55;100.00
77120;BME280;66073;47.730;9.352;2023-12-20T06:55:34;97095.72;;;5.32;100.00
77120;BME280;66073;47.730;9.352;2023-12-20T06:58:01;97104.00;;;5.47;100.00
77120;BME280;66073;47.730;9.352;2023-12-20T07:00:27;97095.38;;;5.52;100.00
77120;BME280;66073;47.730;9.352;2023-12-20T07:02:52;97104.47;;;5.21;100.00
77120;BME280;66073;47.730;9.352;2023-12-20T07:05:18;97104.91;;;5.18;100.00
77120;BME280;66073;47.730;9.352;2023-12-20T07:07:46;97105.59;;;5.25;100.00
77120;BME280;66073;47.730;9.352;2023-12-20T07:10:12;97111.84;;;5.42;100.00
77120;BME280;66073;47.730;9.352;2023-12-20T07:12:38;97105.25;;;5.21;100.00
77120;BME280;66073;47.730;9.352;2023-12-20T07:15:03;97109.44;;;5.52;100.00
77120;BME280;66073;47.730;9.352;2023-12-20T07:17:30;97113.91;;;5.52;100.00
77120;BME280;66073;47.730;9.352;2023-12-20T07:19:56;97115.97;;;5.61;100.00
77120;BME280;66073;47.730;9.352;2023-12-20T07:22:22;97114.81;;;5.80;100.00
77120;BME280;66073;47.730;9.352;2023-12-20T07:24:47;97108.91;;;5.78;100.00
77120;BME280;66073;47.730;9.352;2023-12-20T07:27:13;97111.00;;;5.65;100.00
77120;BME280;66073;47.730;9.352;2023-12-20T07:29:39;97121.84;;;5.52;100.00
77120;BME280;66073;47.730;9.352;2023-12-20T07:32:04;97124.25;;;5.53;100.00
77120;BME280;66073;47.730;9.352;2023-12-20T07:34:30;97118.03;;;5.71;100.00
77120;BME280;66073;47.730;9.352;2023-12-20T07:36:55;97118.53;;;5.44;100.00
77120;BME280;66073;47.730;9.352;2023-12-20T07:39:21;97115.88;;;5.56;100.00
77120;BME280;66073;47.730;9.352;2023-12-20T07:41:46;97116.91;;;5.43;100.00
77120;BME280;66073;47.730;9.352;2023-12-20T07:44:12;97119.31;;;5.45;100.00
77120;BME280;66073;47.730;9.352;2023-12-20T07:46:37;97129.78;;;5.40;100.00
77120;BME280;66073;47.730;9.352;2023-12-20T07:49:05;97138.31;;;5.65;100.00
77120;BME280;66073;47.730;9.352;2023-12-20T07:51:30;97140.72;;;5.55;100.00
77120;BME280;66073;47.730;9.352;2023-12-20T07:53:56;97140.03;;;5.48;100.00
77120;BME280;66073;47.730;9.352;2023-12-20T07:56:21;97135.31;;;5.50;100.00
77120;BME280;66073;47.730;9.352;2023-12-20T07:58:47;97140.94;;;5.54;100.00
77120;BME280;66073;47.730;9.352;2023-12-20T08:01:15;97137.97;;;5.38;100.00
77120;BME280;66073;47.730;9.352;2023-12-20T08:03:41;97142.31;;;5.33;100.00
77120;BME280;66073;47.730;9.352;2023-12-20T08:06:06;97147.75;;;5.38;100.00
77120;BME280;66073;47.730;9.352;2023-12-20T08:08:32;97145.81;;;5.45;100.00
77120;BME280;66073;47.730;9.352;2023-12-20T08:10:57;97151.19;;;5.50;100.00
77120;BME280;66073;47.730;9.352;2023-12-20T08:13:25;97146.25;;;5.42;100.00
77120;BME280;66073;47.730;9.352;2023-12-20T08:15:51;97150.97;;;5.52;100.00
77120;BME280;66073;47.730;9.352;2023-12-20T08:18:17;97147.53;;;5.63;100.00
77120;BME280;66073;47.730;9.352;2023-12-20T08:20:42;97144.75;;;5.46;100.00
77120;BME280;66073;47.730;9.352;2023-12-20T08:23:08;97146.94;;;5.61;100.00
77120;BME280;66073;47.730;9.352;2023-12-20T08:25:33;97152.34;;;5.77;100.00
77120;BME280;66073;47.730;9.352;2023-12-20T08:27:59;97143.63;;;5.88;100.00
77120;BME280;66073;47.730;9.352;2023-12-20T08:30:24;97146.81;;;5.90;100.00
77120;BME280;66073;47.730;9.352;2023-12-20T08:32:50;97145.22;;;5.89;100.00
77120;BME280;66073;47.730;9.352;2023-12-20T08:35:15;97152.22;;;5.84;100.00
77120;BME280;66073;47.730;9.352;2023-12-20T08:37:41;97147.50;;;5.74;100.00
77120;BME280;66073;47.730;9.352;2023-12-20T08:40:07;97154.66;;;5.62;100.00
77120;BME280;66073;47.730;9.352;2023-12-20T08:42:32;97148.66;;;5.43;100.00
77120;BME280;66073;47.730;9.352;2023-12-20T08:44:58;97150.59;;;5.71;100.00
77120;BME280;66073;47.730;9.352;2023-12-20T08:47:24;97160.06;;;5.79;100.00
77120;BME280;66073;47.730;9.352;2023-12-20T08:49:49;97161.09;;;5.89;100.00
77120;BME280;66073;47.730;9.352;2023-12-20T08:52:15;97148.09;;;5.88;100.00
77120;BME280;66073;47.730;9.352;2023-12-20T08:54:40;97149.81;;;5.59;100.00
77120;BME280;66073;47.730;9.352;2023-12-20T08:57:06;97150.97;;;5.63;100.00
77120;BME280;66073;47.730;9.352;2023-12-20T08:59:32;97143.47;;;5.83;100.00
77120;BME280;66073;47.730;9.352;2023-12-20T09:01:58;97142.78;;;5.76;100.00
77120;BME280;66073;47.730;9.352;2023-12-20T09:04:23;97139.09;;;6.01;100.00
77120;BME280;66073;47.730;9.352;2023-12-20T09:06:49;97135.75;;;5.93;100.00
77120;BME280;66073;47.730;9.352;2023-12-20T09:09:14;97142.75;;;6.11;100.00
77120;BME280;66073;47.730;9.352;2023-12-20T09:11:40;97145.56;;;6.33;100.00
77120;BME280;66073;47.730;9.352;2023-12-20T09:14:06;97156.25;;;6.10;100.00
77120;BME280;66073;47.730;9.352;2023-12-20T09:16:31;97145.09;;;6.36;100.00
77120;BME280;66073;47.730;9.352;2023-12-20T09:18:57;97139.47;;;6.32;100.00
77120;BME280;66073;47.730;9.352;2023-12-20T09:21:23;97153.53;;;6.61;100.00
77120;BME280;66073;47.730;9.352;2023-12-20T09:23:49;97149.16;;;6.67;100.00
77120;BME280;66073;47.730;9.352;2023-12-20T09:26:15;97151.06;;;6.71;100.00
77120;BME280;66073;47.730;9.352;2023-12-20T09:28:40;97146.53;;;6.83;100.00
77120;BME280;66073;47.730;9.352;2023-12-20T09:31:06;97150.34;;;6.59;100.00
77120;BME280;66073;47.730;9.352;2023-12-20T09:33:33;97141.47;;;6.54;100.00
77120;BME280;66073;47.730;9.352;2023-12-20T09:35:58;97142.06;;;6.16;100.00
77120;BME280;66073;47.730;9.352;2023-12-20T09:38:24;97152.97;;;6.31;100.00
77120;BME280;66073;47.730;9.352;2023-12-20T09:40:50;97160.97;;;6.76;100.00
77120;BME280;66073;47.730;9.352;2023-12-20T09:43:19;97146.56;;;6.72;100.00
77120;BME280;66073;47.730;9.352;2023-12-20T09:45:47;97142.53;;;6.53;100.00
77120;BME280;66073;47.730;9.352;2023-12-20T09:48:13;97139.53;;;6.49;100.00
77120;BME280;66073;47.730;9.352;2023-12-20T09:50:41;97142.28;;;6.54;100.00
77120;BME280;66073;47.730;9.352;2023-12-20T09:53:08;97144.06;;;6.65;100.00
77120;BME280;66073;47.730;9.352;2023-12-20T09:55:36;97149.19;;;6.15;100.00
77120;BME280;66073;47.730;9.352;2023-12-20T09:58:02;97146.63;;;6.60;100.00
77120;BME280;66073;47.730;9.352;2023-12-20T10:00:28;97141.72;;;6.52;100.00
77120;BME280;66073;47.730;9.352;2023-12-20T10:03:00;97142.72;;;6.23;100.00
77120;BME280;66073;47.730;9.352;2023-12-20T10:07:52;97136.47;;;6.57;100.00
77120;BME280;66073;47.730;9.352;2023-12-20T10:10:18;97134.88;;;6.84;100.00
77120;BME280;66073;47.730;9.352;2023-12-20T10:13:01;97129.44;;;6.63;100.00
77120;BME280;66073;47.730;9.352;2023-12-20T10:15:27;97120.47;;;6.80;100.00
77120;BME280;66073;47.730;9.352;2023-12-20T10:17:53;97116.34;;;6.73;100.00
77120;BME280;66073;47.730;9.352;2023-12-20T10:20:20;97119.53;;;6.58;100.00
77120;BME280;66073;47.730;9.352;2023-12-20T10:22:46;97113.16;;;6.87;100.00
77120;BME280;66073;47.730;9.352;2023-12-20T10:25:12;97104.50;;;6.92;100.00
77120;BME280;66073;47.730;9.352;2023-12-20T10:27:37;97093.38;;;7.12;100.00
77120;BME280;66073;47.730;9.352;2023-12-20T10:30:03;97094.91;;;6.91;100.00
77120;BME280;66073;47.730;9.352;2023-12-20T10:32:29;97091.78;;;7.11;100.00
77120;BME280;66073;47.730;9.352;2023-12-20T10:34:55;97093.94;;;7.14;100.00
77120;BME280;66073;47.730;9.352;2023-12-20T10:37:21;97090.50;;;7.13;100.00
77120;BME280;66073;47.730;9.352;2023-12-20T10:39:54;97084.78;;;7.05;100.00
77120;BME280;66073;47.730;9.352;2023-12-20T10:42:26;97078.59;;;7.16;100.00
77120;BME280;66073;47.730;9.352;2023-12-20T10:44:52;97081.06;;;7.22;100.00
77120;BME280;66073;47.730;9.352;2023-12-20T10:47:20;97092.25;;;7.41;100.00
77120;BME280;66073;47.730;9.352;2023-12-20T10:49:46;97081.72;;;7.29;100.00
77120;BME280;66073;47.730;9.352;2023-12-20T10:52:13;97079.88;;;7.30;100.00
77120;BME280;66073;47.730;9.352;2023-12-20T10:54:39;97081.63;;;7.41;100.00
77120;BME280;66073;47.730;9.352;2023-12-20T10:57:05;97075.81;;;7.44;100.00
77120;BME280;66073;47.730;9.352;2023-12-20T10:59:33;97070.78;;;7.26;100.00
77120;BME280;66073;47.730;9.352;2023-12-20T11:02:03;97067.91;;;6.77;100.00
77120;BME280;66073;47.730;9.352;2023-12-20T11:04:45;97071.09;;;6.96;100.00
77120;BME280;66073;47.730;9.352;2023-12-20T11:09:56;97073.84;;;7.01;100.00
77120;BME280;66073;47.730;9.352;2023-12-20T11:13:04;97070.97;;;7.03;100.00
77120;BME280;66073;47.730;9.352;2023-12-20T11:15:35;97069.41;;;7.07;100.00
77120;BME280;66073;47.730;9.352;2023-12-20T11:18:01;97068.00;;;6.54;100.00
77120;BME280;66073;47.730;9.352;2023-12-20T11:20:41;97062.66;;;7.16;100.00
77120;BME280;66073;47.730;9.352;2023-12-20T11:23:08;97065.16;;;7.06;100.00
77120;BME280;66073;47.730;9.352;2023-12-20T11:25:54;97051.16;;;7.27;100.00
77120;BME280;66073;47.730;9.352;2023-12-20T11:28:22;97045.00;;;7.43;100.00
77120;BME280;66073;47.730;9.352;2023-12-20T11:30:51;97052.16;;;7.42;100.00
77120;BME280;66073;47.730;9.352;2023-12-20T11:33:29;97042.28;;;7.38;100.00
77120;BME280;66073;47.730;9.352;2023-12-20T11:35:56;97049.16;;;7.56;100.00
77120;BME280;66073;47.730;9.352;2023-12-20T11:38:22;97057.78;;;7.84;100.00
77120;BME280;66073;47.730;9.352;2023-12-20T11:40:49;97044.91;;;7.76;100.00
77120;BME280;66073;47.730;9.352;2023-12-20T11:43:52;97044.03;;;7.92;100.00
77120;BME280;66073;47.730;9.352;2023-12-20T11:46:19;97038.97;;;7.69;100.00
77120;BME280;66073;47.730;9.352;2023-12-20T11:48:44;97043.28;;;8.19;100.00
77120;BME280;66073;47.730;9.352;2023-12-20T11:51:11;97026.59;;;8.02;100.00
77120;BME280;66073;47.730;9.352;2023-12-20T11:53:37;97033.41;;;7.49;100.00
77120;BME280;66073;47.730;9.352;2023-12-20T11:56:05;97027.97;;;7.82;100.00
77120;BME280;66073;47.730;9.352;2023-12-20T11:58:34;97024.78;;;8.07;100.00
77120;BME280;66073;47.730;9.352;2023-12-20T12:01:00;97021.28;;;7.58;100.00
77120;BME280;66073;47.730;9.352;2023-12-20T12:03:27;97030.03;;;8.24;100.00
77120;BME280;66073;47.730;9.352;2023-12-20T12:05:53;97028.81;;;8.10;100.00
77120;BME280;66073;47.730;9.352;2023-12-20T12:08:18;97022.25;;;7.95;100.00
77120;BME280;66073;47.730;9.352;2023-12-20T12:10:44;97022.81;;;7.32;100.00
77120;BME280;66073;47.730;9.352;2023-12-20T12:13:10;97028.72;;;7.56;100.00
77120;BME280;66073;47.730;9.352;2023-12-20T12:15:36;97032.13;;;7.35;100.00
77120;BME280;66073;47.730;9.352;2023-12-20T12:18:03;97027.75;;;7.45;100.00
77120;BME280;66073;47.730;9.352;2023-12-20T12:20:30;97021.78;;;7.55;100.00
77120;BME280;66073;47.730;9.352;2023-12-20T12:23:03;97031.53;;;7.49;100.00
77120;BME280;66073;47.730;9.352;2023-12-20T12:25:30;97022.09;;;7.80;100.00
77120;BME280;66073;47.730;9.352;2023-12-20T12:27:58;97024.56;;;7.65;100.00
77120;BME280;66073;47.730;9.352;2023-12-20T12:30:25;97026.63;;;8.28;100.00
77120;BME280;66073;47.730;9.352;2023-12-20T12:32:52;97010.00;;;8.70;100.00
77120;BME280;66073;47.730;9.352;2023-12-20T12:35:19;97011.94;;;8.79;100.00
77120;BME280;66073;47.730;9.352;2023-12-20T12:37:45;97005.25;;;9.14;100.00
77120;BME280;66073;47.730;9.352;2023-12-20T12:40:16;97004.09;;;8.94;100.00
77120;BME280;66073;47.730;9.352;2023-12-20T12:42:45;97006.16;;;9.29;100.00
77120;BME280;66073;47.730;9.352;2023-12-20T12:45:11;97000.56;;;8.52;100.00
77120;BME280;66073;47.730;9.352;2023-12-20T12:47:37;97002.66;;;8.50;100.00
77120;BME280;66073;47.730;9.352;2023-12-20T12:50:02;97008.69;;;8.40;100.00
77120;BME280;66073;47.730;9.352;2023-12-20T12:52:28;97007.78;;;8.30;100.00
77120;BME280;66073;47.730;9.352;2023-12-20T12:54:54;97006.03;;;8.19;100.00
77120;BME280;66073;47.730;9.352;2023-12-20T12:57:19;97011.69;;;8.01;100.00
77120;BME280;66073;47.730;9.352;2023-12-20T12:59:45;97029.81;;;8.04;100.00
77120;BME280;66073;47.730;9.352;2023-12-20T13:02:12;97022.03;;;7.54;100.00